Time;durP1;ratioP1;P1;durP2;ratioP2;P2;SDS_P1;SDS_P2;PMS_P1;PMS_P2;Temp;Humidity;BMP_temperature;BMP_pressure;BME280_temperature;BME280_humidity;BME280_pressure;Samples;Min_cycle;Max_cycle;Signal;HPM_P1;HPM_P2
2022/12/31 11:50:54;;;;;;;;;;;;;;;;;;;;;
2022/12/31 11:55:49;;;;;;;2.78;1.00;;;;;;;19.04;52.15;99841.47;1083570;54;20038;-77
2022/12/31 11:57:02;;;;;;;2.38;0.75;;;;;;;19.21;51.98;99843.78;1084810;54;20038;-77
2022/12/31 11:58:19;;;;;;;2.50;0.90;;;;;;;18.99;51.94;99847.50;1084630;39;20450;-77
2022/12/31 11:59:23;;;;;;;2.88;0.80;;;;;;;19.16;51.60;99847.09;1084091;54;20034;-77
2022/12/31 12:00:29;;;;;;;3.97;0.98;;;;;;;19.18;51.33;99845.03;1082460;54;20041;-76
2022/12/31 12:01:41;;;;;;;2.42;0.85;;;;;;;19.12;51.35;99852.09;1084254;54;20069;-79
2022/12/31 12:02:45;;;;;;;2.65;0.80;;;;;;;19.30;51.45;99842.53;1084454;54;20034;-77
2022/12/31 12:03:50;;;;;;;2.95;0.80;;;;;;;19.31;51.78;99839.66;1085618;46;20665;-77
2022/12/31 12:04:57;;;;;;;3.13;0.90;;;;;;;19.18;51.31;99843.16;1085137;54;20042;-78
2022/12/31 12:06:01;;;;;;;3.55;0.90;;;;;;;19.15;51.95;99837.31;1084565;54;20066;-79
2022/12/31 12:07:08;;;;;;;2.58;0.77;;;;;;;19.39;51.60;99840.47;1083906;54;20054;-77
2022/12/31 12:08:14;;;;;;;2.58;0.80;;;;;;;19.16;51.69;99841.69;1084304;54;20034;-77
2022/12/31 12:09:29;;;;;;;2.67;0.80;;;;;;;19.11;51.25;99836.88;1086348;31;20637;-78
2022/12/31 12:10:38;;;;;;;2.85;0.90;;;;;;;19.31;50.95;99842.34;1084531;54;20034;-78
2022/12/31 12:11:42;;;;;;;2.30;0.80;;;;;;;19.21;51.45;99844.63;1084130;54;20046;-77
2022/12/31 12:12:47;;;;;;;3.55;0.70;;;;;;;19.39;50.99;99835.88;1084252;39;20470;-76
2022/12/31 12:13:52;;;;;;;2.20;0.70;;;;;;;19.39;51.25;99835.88;1083700;54;20042;-76
2022/12/31 12:14:54;;;;;;;2.22;0.77;;;;;;;19.26;51.11;99839.41;1084004;54;20054;-82
2022/12/31 12:16:01;;;;;;;2.83;0.80;;;;;;;19.41;51.23;99836.50;1083941;54;20038;-79
2022/12/31 12:17:06;;;;;;;2.33;0.80;;;;;;;19.29;51.10;99835.44;1084050;39;20556;-77
2022/12/31 12:18:15;;;;;;;2.92;0.70;;;;;;;19.22;50.99;99837.31;1083995;46;20063;-78
2022/12/31 12:19:17;;;;;;;2.53;0.70;;;;;;;19.47;50.83;99832.13;1083584;54;20038;-77
2022/12/31 12:20:31;;;;;;;1.77;0.68;;;;;;;19.36;50.77;99824.63;1083805;54;20038;-77
2022/12/31 12:21:36;;;;;;;3.15;0.90;;;;;;;19.39;51.23;99819.63;1083743;54;21088;-78
2022/12/31 12:22:50;;;;;;;2.65;0.82;;;;;;;19.59;50.41;99826.91;1083933;54;20157;-78
2022/12/31 12:23:59;;;;;;;2.22;0.80;;;;;;;19.67;50.44;99823.97;1083714;54;20043;-77
2022/12/31 12:25:05;;;;;;;2.67;0.80;;;;;;;19.72;50.74;99821.50;1083830;54;20133;-76
2022/12/31 12:26:27;;;;;;;3.90;0.88;;;;;;;19.46;51.19;99825.84;1083891;54;20035;-77
2022/12/31 12:27:30;;;;;;;2.42;0.90;;;;;;;19.37;51.13;99818.97;1083670;54;20626;-76
2022/12/31 12:28:45;;;;;;;2.53;0.90;;;;;;;19.17;50.96;99827.97;1084247;54;20034;-77
2022/12/31 12:29:46;;;;;;;2.50;0.68;;;;;;;19.31;51.32;99823.38;1084144;54;20030;-77
2022/12/31 12:31:00;;;;;;;2.40;1.00;;;;;;;19.42;50.52;99818.34;1083973;54;20050;-76
2022/12/31 12:32:04;;;;;;;4.20;1.27;;;;;;;19.38;50.84;99812.53;1083991;54;20883;-76
2022/12/31 12:33:19;;;;;;;2.88;0.80;;;;;;;19.28;50.60;99822.94;1084502;46;20060;-77
2022/12/31 12:34:25;;;;;;;3.00;1.00;;;;;;;19.39;50.98;99818.78;1085098;31;20647;-77
2022/12/31 12:35:34;;;;;;;2.80;1.02;;;;;;;19.24;51.10;99825.22;1084270;54;20061;-76
2022/12/31 12:36:48;;;;;;;2.17;0.80;;;;;;;19.28;50.90;99823.78;1084040;54;20073;-78
2022/12/31 12:38:01;;;;;;;2.00;0.80;;;;;;;19.29;50.88;99824.59;1084074;54;20054;-77
2022/12/31 12:39:08;;;;;;;3.03;0.95;;;;;;;19.28;51.09;99817.53;1084841;39;20493;-77
2022/12/31 12:40:20;;;;;;;4.30;1.08;;;;;;;19.21;50.97;99822.97;1084236;54;20038;-82
2022/12/31 12:41:26;;;;;;;5.70;1.52;;;;;;;19.35;51.24;99815.66;1084461;54;20049;-77
2022/12/31 12:42:28;;;;;;;2.85;1.10;;;;;;;19.36;51.38;99817.34;1085329;39;20453;-77
2022/12/31 12:43:36;;;;;;;3.78;1.15;;;;;;;19.32;51.13;99818.78;1084390;54;20060;-77
2022/12/31 12:44:40;;;;;;;3.70;1.30;;;;;;;19.27;51.33;99815.88;1083796;54;20050;-77
2022/12/31 12:45:45;;;;;;;3.95;0.93;;;;;;;19.19;51.46;99825.03;1083990;54;20065;-77
2022/12/31 12:46:55;;;;;;;3.42;1.38;;;;;;;19.16;51.30;99815.44;1084224;54;20042;-77
2022/12/31 12:48:03;;;;;;;3.05;1.20;;;;;;;19.38;51.10;99812.53;1084060;54;20596;-77
2022/12/31 12:49:08;;;;;;;2.80;1.08;;;;;;;19.21;51.40;99811.28;1084954;54;20073;-79
2022/12/31 12:50:17;;;;;;;3.63;1.10;;;;;;;19.37;51.10;99810.03;1084737;54;20094;-78
2022/12/31 12:51:35;;;;;;;2.88;1.10;;;;;;;19.54;50.52;99805.03;1085037;54;20110;-79
2022/12/31 12:52:59;;;;;;;2.95;1.00;;;;;;;19.53;50.36;99811.50;1085058;54;20042;-78
2022/12/31 12:54:13;;;;;;;2.63;0.98;;;;;;;19.49;50.47;99803.75;1084554;54;20038;-78
2022/12/31 12:55:23;;;;;;;3.55;1.20;;;;;;;19.39;50.59;99797.94;1084034;54;20038;-78
2022/12/31 12:56:36;;;;;;;3.70;1.40;;;;;;;19.48;50.82;99799.38;1084934;54;20042;-79
2022/12/31 12:57:49;;;;;;;3.70;1.60;;;;;;;19.66;50.52;99803.31;1085111;54;20932;-76
2022/12/31 12:59:09;;;;;;;5.47;1.65;;;;;;;19.65;50.07;99798.94;1085006;47;20629;-77
2022/12/31 13:00:23;;;;;;;5.60;2.95;;;;;;;19.40;50.85;99802.31;1084775;54;20057;-76
2022/12/31 13:01:36;;;;;;;6.18;3.40;;;;;;;19.59;50.51;99799.81;1084726;54;20069;-77
2022/12/31 13:03:24;;;;;;;6.30;3.05;;;;;;;19.56;50.47;99792.06;1086639;31;20582;-78
2022/12/31 13:04:57;;;;;;;7.63;3.78;;;;;;;19.55;50.22;99795.84;1085433;54;20023;-78
2022/12/31 13:06:23;;;;;;;8.50;5.75;;;;;;;19.40;50.48;99786.06;1084654;54;20038;-77
2022/12/31 13:07:43;;;;;;;8.90;5.60;;;;;;;19.45;50.48;99785.44;1085702;54;20069;-77
2022/12/31 13:09:03;;;;;;;10.88;6.43;;;;;;;19.43;50.94;99793.78;1086708;54;20057;-78
2022/12/31 13:10:19;;;;;;;12.18;8.25;;;;;;;19.29;50.96;99790.22;1086945;54;20039;-77
2022/12/31 13:11:36;;;;;;;9.07;6.60;;;;;;;19.47;50.78;99792.28;1086257;54;20060;-79
2022/12/31 13:12:45;;;;;;;8.57;5.70;;;;;;;19.45;50.80;99788.13;1085654;54;20119;-78
2022/12/31 13:13:57;;;;;;;9.20;5.13;;;;;;;19.44;50.91;99789.16;1085678;54;20042;-75
2022/12/31 13:15:11;;;;;;;9.60;6.15;;;;;;;19.36;51.18;99792.94;1084546;54;20054;-77
2022/12/31 13:16:24;;;;;;;7.78;5.45;;;;;;;19.48;50.88;99788.53;1084957;54;20060;-76
2022/12/31 13:17:48;;;;;;;6.88;4.18;;;;;;;19.54;50.87;99788.75;1084683;54;20046;-77
2022/12/31 13:19:02;;;;;;;7.78;4.88;;;;;;;19.64;50.60;99794.59;1084711;54;20125;-76
2022/12/31 13:20:12;;;;;;;7.35;4.30;;;;;;;19.57;50.61;99793.75;1084535;54;20042;-77
2022/12/31 13:21:33;;;;;;;8.10;4.47;;;;;;;19.53;50.65;99792.50;1084759;54;20043;-78
2022/12/31 13:22:46;;;;;;;7.65;4.80;;;;;;;19.53;50.89;99792.50;1084600;54;20597;-77
2022/12/31 13:23:56;;;;;;;8.07;4.18;;;;;;;19.54;51.01;99789.59;1084599;54;20042;-78
2022/12/31 13:25:05;;;;;;;9.05;5.05;;;;;;;19.31;51.44;99790.00;1085485;39;20276;-78
2022/12/31 13:26:16;;;;;;;5.53;3.28;;;;;;;19.53;51.20;99787.09;1084688;54;20034;-78
2022/12/31 13:27:29;;;;;;;6.07;3.03;;;;;;;19.41;51.17;99787.72;1084706;54;20038;-77
2022/12/31 13:28:37;;;;;;;5.65;2.72;;;;;;;19.54;51.14;99786.88;1084886;54;20059;-77
2022/12/31 13:29:45;;;;;;;4.25;2.15;;;;;;;19.56;51.18;99779.38;1085363;39;20870;-76
2022/12/31 13:30:54;;;;;;;6.03;2.63;;;;;;;19.37;51.32;99783.75;1084450;54;20656;-77
2022/12/31 13:32:03;;;;;;;7.90;2.45;;;;;;;19.54;51.27;99783.34;1084707;54;20042;-78
2022/12/31 13:33:16;;;;;;;5.00;1.88;;;;;;;19.41;51.28;99776.88;1085368;54;20122;-77
2022/12/31 13:34:25;;;;;;;3.88;1.92;;;;;;;19.44;51.27;99778.34;1084762;54;20042;-77
2022/12/31 13:35:34;;;;;;;3.58;1.52;;;;;;;19.55;51.00;99774.16;1085251;54;20065;-76
2022/12/31 13:36:44;;;;;;;5.13;1.50;;;;;;;19.34;51.27;99773.34;1085967;39;20461;-78
2022/12/31 13:37:52;;;;;;;3.75;1.40;;;;;;;19.36;51.65;99784.81;1085105;54;20113;-77
2022/12/31 13:39:00;;;;;;;3.08;1.20;;;;;;;19.46;51.32;99778.97;1085199;54;20045;-77
2022/12/31 13:40:18;;;;;;;3.38;1.13;;;;;;;19.47;51.27;99781.44;1085161;54;20094;-77
2022/12/31 13:41:28;;;;;;;3.30;1.38;;;;;;;19.25;51.93;99774.59;1084366;54;20050;-78
2022/12/31 13:42:42;;;;;;;3.10;1.15;;;;;;;19.46;51.20;99777.06;1084434;54;20137;-79
2022/12/31 13:43:55;;;;;;;2.28;0.90;;;;;;;19.41;51.40;99779.59;1085168;54;20038;-79
2022/12/31 13:45:05;;;;;;;5.10;1.02;;;;;;;19.20;51.77;99775.22;1084661;54;20060;-78
2022/12/31 13:46:17;;;;;;;2.50;0.80;;;;;;;19.36;51.66;99776.69;1085262;46;20038;-77
2022/12/31 13:47:29;;;;;;;2.13;0.90;;;;;;;19.44;51.43;99776.47;1085237;54;20064;-77
2022/12/31 13:48:42;;;;;;;2.25;0.88;;;;;;;19.43;51.42;99769.38;1085579;39;20498;-78
2022/12/31 13:49:51;;;;;;;2.63;0.93;;;;;;;19.39;51.16;99765.41;1086130;39;20867;-80
2022/12/31 13:51:03;;;;;;;3.17;1.17;;;;;;;19.42;51.29;99770.41;1085014;39;20503;-80
2022/12/31 13:52:23;;;;;;;2.50;0.93;;;;;;;19.43;51.29;99779.38;1085146;54;20049;-78
2022/12/31 13:53:38;;;;;;;3.25;1.15;;;;;;;19.21;51.63;99771.47;1085193;54;20072;-78
2022/12/31 13:54:53;;;;;;;3.47;1.52;;;;;;;19.17;51.74;99767.50;1084773;54;20068;-78
2022/12/31 13:56:00;;;;;;;3.83;1.73;;;;;;;19.30;51.44;99767.50;1084956;54;20042;-78
2022/12/31 13:57:13;;;;;;;3.75;1.83;;;;;;;19.09;52.27;99765.81;1085314;54;20038;-78
2022/12/31 13:58:26;;;;;;;6.90;1.70;;;;;;;19.04;51.61;99767.47;1085467;54;20054;-77
2022/12/31 13:59:37;;;;;;;4.05;1.80;;;;;;;19.08;51.90;99764.16;1085871;39;20675;-79
2022/12/31 14:00:46;;;;;;;4.82;2.20;;;;;;;19.09;52.00;99762.28;1085590;54;20949;-78
2022/12/31 14:01:57;;;;;;;4.50;2.50;;;;;;;19.18;51.76;99771.88;1085292;54;20073;-77
2022/12/31 14:03:11;;;;;;;5.95;2.67;;;;;;;19.33;51.14;99756.22;1086311;54;20038;-77
2022/12/31 14:04:20;;;;;;;4.25;2.17;;;;;;;19.36;51.24;99770.41;1085911;54;20081;-78
2022/12/31 14:05:29;;;;;;;4.60;2.30;;;;;;;19.42;50.91;99766.84;1086217;54;20042;-78
2022/12/31 14:06:40;;;;;;;7.25;3.35;;;;;;;19.39;50.98;99765.41;1087870;54;20042;-81
2022/12/31 14:07:51;;;;;;;5.55;3.03;;;;;;;19.40;50.93;99769.78;1087695;54;20030;-78
2022/12/31 14:08:58;;;;;;;4.65;2.65;;;;;;;19.28;50.90;99771.44;1088087;54;20049;-81
2022/12/31 14:10:00;;;;;;;5.03;2.30;;;;;;;19.36;51.09;99767.72;1087690;54;20058;-80
2022/12/31 14:11:14;;;;;;;3.92;1.80;;;;;;;19.36;50.69;99773.97;1086566;54;20061;-77
2022/12/31 14:12:31;;;;;;;4.78;2.42;;;;;;;19.25;51.08;99769.19;1085038;54;20042;-80
2022/12/31 14:13:49;;;;;;;5.30;2.90;;;;;;;19.03;51.13;99774.78;1085326;54;20073;-77
2022/12/31 14:15:01;;;;;;;4.70;2.20;;;;;;;19.18;51.08;99780.00;1085385;54;20038;-78
2022/12/31 14:16:18;;;;;;;4.65;2.55;;;;;;;19.10;51.23;99783.75;1085541;54;20042;-78
2022/12/31 14:17:30;;;;;;;4.38;2.47;;;;;;;19.25;50.94;99774.59;1085518;54;20050;-78
2022/12/31 14:18:39;;;;;;;4.50;2.10;;;;;;;19.25;50.92;99774.59;1084879;54;20669;-79
2022/12/31 14:19:57;;;;;;;4.13;1.80;;;;;;;19.28;50.70;99777.72;1084589;54;20082;-77
2022/12/31 14:21:10;;;;;;;7.18;1.88;;;;;;;19.21;51.01;99784.19;1084489;54;20034;-78
2022/12/31 14:22:23;;;;;;;4.65;2.10;;;;;;;19.26;50.80;99776.28;1083706;54;20049;-77
2022/12/31 14:23:39;;;;;;;3.72;1.73;;;;;;;19.26;51.00;99768.16;1084334;54;20153;-78
2022/12/31 14:24:49;;;;;;;3.97;1.85;;;;;;;19.07;51.08;99769.78;1083799;54;20811;-78
2022/12/31 14:25:59;;;;;;;4.03;1.60;;;;;;;18.99;51.37;99771.66;1084187;54;20054;-77
2022/12/31 14:27:08;;;;;;;3.70;1.75;;;;;;;19.11;51.36;99771.06;1085926;39;20421;-79
2022/12/31 14:28:19;;;;;;;5.38;1.98;;;;;;;19.00;51.31;99772.50;1084399;54;20039;-78
2022/12/31 14:29:33;;;;;;;4.63;2.03;;;;;;;18.92;51.57;99778.94;1084354;54;20042;-77
2022/12/31 14:30:43;;;;;;;4.60;2.45;;;;;;;18.85;51.59;99770.78;1084585;54;20042;-78
2022/12/31 14:32:03;;;;;;;5.15;2.88;;;;;;;18.95;51.18;99772.28;1084600;54;20048;-78
2022/12/31 14:33:20;;;;;;;4.80;2.75;;;;;;;19.01;50.84;99772.31;1084698;39;20547;-78
2022/12/31 14:34:31;;;;;;;4.43;2.65;;;;;;;19.00;50.89;99776.03;1084919;54;20077;-77
2022/12/31 14:35:44;;;;;;;4.90;2.70;;;;;;;18.86;51.61;99771.59;1084288;54;20063;-79
2022/12/31 14:36:58;;;;;;;4.32;2.50;;;;;;;18.98;51.13;99769.16;1084364;54;20094;-78
2022/12/31 14:38:11;;;;;;;4.22;2.42;;;;;;;18.83;51.65;99766.63;1084397;54;20141;-80
2022/12/31 14:39:29;;;;;;;6.10;2.53;;;;;;;18.82;51.57;99773.06;1084562;54;20600;-78
2022/12/31 14:40:50;;;;;;;3.72;1.80;;;;;;;18.69;51.54;99771.19;1085311;39;20447;-78
2022/12/31 14:42:05;;;;;;;3.90;1.90;;;;;;;18.82;51.46;99773.91;1084397;54;20050;-80
2022/12/31 14:43:20;;;;;;;4.95;2.00;;;;;;;18.78;51.42;99779.94;1084587;39;20915;-77
2022/12/31 14:44:34;;;;;;;4.35;2.00;;;;;;;18.89;51.45;99773.09;1083997;54;20050;-77
2022/12/31 14:45:55;;;;;;;4.53;2.00;;;;;;;19.02;51.18;99770.41;1084012;54;20042;-80
2022/12/31 14:47:14;;;;;;;4.20;2.05;;;;;;;19.03;51.35;99777.50;1084016;46;20605;-78
2022/12/31 14:48:32;;;;;;;3.65;2.05;;;;;;;18.99;51.17;99773.53;1083141;54;20138;-78
2022/12/31 14:49:42;;;;;;;4.43;2.38;;;;;;;18.97;51.23;99781.88;1082713;54;20061;-81
2022/12/31 14:50:47;;;;;;;4.20;2.15;;;;;;;19.06;51.35;99790.63;1083229;54;20038;-78
2022/12/31 14:51:52;;;;;;;4.18;2.60;;;;;;;19.05;51.18;99783.56;1082470;54;20069;-75
2022/12/31 14:53:07;;;;;;;4.82;2.78;;;;;;;19.07;51.53;99789.59;1083364;54;20149;-77
2022/12/31 14:54:28;;;;;;;4.88;2.75;;;;;;;19.02;51.39;99794.78;1083529;54;20038;-80
2022/12/31 14:55:37;;;;;;;;;;;;;;;18.80;51.84;99784.09;1086808;54;20042;-77
2022/12/31 14:56:44;;;;;;;13.30;9.20;;;;;;;18.82;52.01;99792.84;1086207;54;19965;-77
2022/12/31 14:57:50;;;;;;;18.92;13.50;;;;;;;18.49;52.41;99798.16;1085959;54;20058;-78
2022/12/31 14:58:54;;;;;;;13.98;10.40;;;;;;;18.59;52.17;99797.81;1085784;54;20031;-79
2022/12/31 15:00:00;;;;;;;11.18;8.82;;;;;;;18.67;52.13;99792.19;1085935;54;20042;-78
2022/12/31 15:01:07;;;;;;;15.10;11.35;;;;;;;18.64;52.12;99796.16;1086283;46;20022;-78
2022/12/31 15:02:25;;;;;;;16.00;11.35;;;;;;;18.69;51.97;99782.81;1085614;54;20038;-79
2022/12/31 15:03:37;;;;;;;15.95;12.88;;;;;;;18.65;51.90;99796.97;1086310;54;20581;-79
2022/12/31 15:04:43;;;;;;;15.82;11.07;;;;;;;18.49;52.23;99799.03;1085628;54;20954;-78
2022/12/31 15:05:54;;;;;;;14.93;12.27;;;;;;;18.58;52.17;99790.72;1085494;39;20489;-80
2022/12/31 15:07:04;;;;;;;12.13;9.40;;;;;;;18.54;52.18;99788.41;1084024;54;20046;-78
2022/12/31 15:08:31;;;;;;;13.23;9.50;;;;;;;18.45;52.42;99792.31;1084676;46;20609;-77
2022/12/31 15:09:52;;;;;;;12.45;8.07;;;;;;;18.51;52.43;99796.94;1085240;54;20073;-80
2022/12/31 15:11:19;;;;;;;10.60;7.72;;;;;;;18.48;52.48;99791.94;1085991;54;20046;-78
2022/12/31 15:12:44;;;;;;;11.05;7.28;;;;;;;18.36;52.63;99796.25;1092270;39;20469;-76
2022/12/31 15:14:06;;;;;;;10.05;7.40;;;;;;;18.35;52.42;99787.31;1087398;54;20046;-77
2022/12/31 15:15:37;;;;;;;9.80;7.20;;;;;;;18.08;53.31;99797.16;1087141;54;20037;-77
2022/12/31 15:16:50;;;;;;;8.07;5.13;;;;;;;18.17;53.06;99797.84;1086970;54;20054;-77
2022/12/31 15:18:07;;;;;;;7.72;4.63;;;;;;;18.10;53.11;99792.41;1088837;46;20038;-77
2022/12/31 15:19:56;;;;;;;8.75;5.22;;;;;;;18.18;52.90;99792.22;1086971;54;20069;-77
2022/12/31 15:21:30;;;;;;;7.47;5.13;;;;;;;18.11;53.03;99791.38;1086822;54;20045;-76
2022/12/31 15:22:39;;;;;;;11.93;7.25;;;;;;;17.99;53.72;99788.41;1086436;54;20885;-77
2022/12/31 15:23:45;;;;;;;7.47;5.30;;;;;;;17.83;53.96;99792.22;1086715;54;20061;-77
2022/12/31 15:24:50;;;;;;;10.70;7.13;;;;;;;17.99;53.67;99795.66;1086725;54;20042;-76
2022/12/31 15:25:56;;;;;;;12.55;7.90;;;;;;;18.12;53.14;99792.19;1086841;54;20026;-78
2022/12/31 15:27:02;;;;;;;11.85;7.00;;;;;;;18.08;53.26;99791.75;1086733;54;20042;-79
2022/12/31 15:28:10;;;;;;;9.32;6.57;;;;;;;18.05;53.21;99792.16;1086605;54;20073;-80
2022/12/31 15:29:27;;;;;;;6.97;4.47;;;;;;;17.95;53.38;99792.50;1087300;46;20069;-78
2022/12/31 15:30:36;;;;;;;7.38;3.65;;;;;;;17.92;53.40;99792.88;1086614;54;20042;-78
2022/12/31 15:31:48;;;;;;;6.00;2.83;;;;;;;17.92;52.95;99787.47;1087558;46;20045;-78
2022/12/31 15:32:50;;;;;;;4.25;2.22;;;;;;;17.92;53.48;99791.03;1086957;54;20039;-78
2022/12/31 15:34:03;;;;;;;4.07;2.15;;;;;;;17.91;53.08;99792.06;1086996;54;20196;-78
2022/12/31 15:35:27;;;;;;;4.10;2.20;;;;;;;17.78;53.57;99795.53;1085965;54;20039;-78
2022/12/31 15:36:37;;;;;;;3.70;2.00;;;;;;;17.78;53.70;99786.56;1086141;54;20042;-79
2022/12/31 15:37:41;;;;;;;4.38;2.10;;;;;;;17.85;53.63;99779.34;1086321;54;20035;-79
2022/12/31 15:38:43;;;;;;;4.05;1.70;;;;;;;17.81;53.58;99783.47;1090488;31;20679;-78
2022/12/31 15:39:47;;;;;;;3.15;1.60;;;;;;;17.81;53.40;99790.72;1086558;54;20042;-77
2022/12/31 15:40:51;;;;;;;3.47;1.67;;;;;;;17.86;53.31;99790.97;1086446;54;20042;-79
2022/12/31 15:41:56;;;;;;;4.30;1.40;;;;;;;17.93;53.25;99787.28;1086130;54;20034;-77
2022/12/31 15:43:32;;;;;;;4.13;1.60;;;;;;;17.87;52.85;99784.53;1086679;39;20918;-78
2022/12/31 15:45:06;;;;;;;6.45;1.52;;;;;;;17.74;53.52;99793.41;1086508;47;20065;-78
2022/12/31 15:46:16;;;;;;;5.03;1.50;;;;;;;17.73;53.52;99791.75;1086339;54;20030;-78
2022/12/31 15:49:42;;;;;;;3.55;1.65;;;;;;;17.69;53.38;99799.41;1086846;54;20061;-77
2022/12/31 15:50:54;;;;;;;3.53;1.65;;;;;;;17.71;53.26;99804.59;1086058;54;20092;-77
2022/12/31 15:52:11;;;;;;;3.50;1.40;;;;;;;17.64;53.36;99801.84;1085928;54;20059;-76
2022/12/31 15:53:28;;;;;;;4.28;1.77;;;;;;;17.59;53.32;99807.84;1087146;54;20034;-77
2022/12/31 15:54:39;;;;;;;4.22;2.22;;;;;;;17.58;53.41;99808.06;1088116;46;20050;-78
2022/12/31 15:55:45;;;;;;;5.75;2.80;;;;;;;17.60;53.76;99806.81;1087347;54;20050;-78
2022/12/31 15:56:50;;;;;;;5.30;3.10;;;;;;;17.49;53.72;99814.63;1087343;54;20031;-77
2022/12/31 15:58:01;;;;;;;4.90;2.63;;;;;;;17.54;53.77;99813.03;1087326;54;20031;-78
2022/12/31 15:59:07;;;;;;;4.35;2.25;;;;;;;17.73;53.34;99814.19;1087429;54;20037;-78
2022/12/31 16:00:17;;;;;;;5.50;2.63;;;;;;;17.68;53.38;99822.06;1092542;39;20393;-80
2022/12/31 16:01:25;;;;;;;4.78;2.58;;;;;;;17.71;53.37;99818.94;1087434;54;20106;-77
2022/12/31 16:02:30;;;;;;;4.35;2.20;;;;;;;17.54;53.70;99815.72;1087368;54;20035;-77
2022/12/31 16:03:35;;;;;;;4.85;2.05;;;;;;;17.60;53.49;99819.50;1087378;54;20061;-77
2022/12/31 16:04:43;;;;;;;4.30;2.15;;;;;;;17.48;53.58;99816.50;1087476;54;20046;-77
2022/12/31 16:05:45;;;;;;;5.07;2.20;;;;;;;17.50;53.79;99817.13;1087597;46;20034;-78
2022/12/31 16:06:50;;;;;;;5.35;2.00;;;;;;;17.61;53.40;99819.31;1087393;54;20034;-77
2022/12/31 16:07:53;;;;;;;3.97;1.70;;;;;;;17.39;53.57;99820.38;1087257;54;20038;-77
2022/12/31 16:08:58;;;;;;;3.95;1.98;;;;;;;17.39;53.88;99815.81;1087289;54;20037;-77
2022/12/31 16:10:05;;;;;;;3.42;1.65;;;;;;;17.59;53.25;99823.25;1088449;46;20052;-76
2022/12/31 16:11:08;;;;;;;4.55;1.60;;;;;;;17.51;53.36;99820.69;1087166;54;20022;-77
2022/12/31 16:12:22;;;;;;;3.55;1.50;;;;;;;17.59;53.08;99815.97;1087391;54;20034;-77
2022/12/31 16:13:26;;;;;;;4.53;1.75;;;;;;;17.50;53.54;99816.31;1087229;54;20039;-76
2022/12/31 16:14:38;;;;;;;3.45;1.42;;;;;;;17.45;53.66;99814.19;1087334;54;20034;-76
2022/12/31 16:15:39;;;;;;;3.53;1.80;;;;;;;17.47;53.73;99825.66;1087469;54;20050;-76
2022/12/31 16:16:54;;;;;;;3.92;1.73;;;;;;;17.39;53.36;99826.63;1086910;54;20074;-77
2022/12/31 16:18:05;;;;;;;5.50;1.85;;;;;;;17.33;53.52;99829.25;1086751;54;20034;-76
2022/12/31 16:19:28;;;;;;;3.60;1.80;;;;;;;17.31;53.78;99824.06;1086820;54;20623;-77
2022/12/31 16:20:35;;;;;;;3.80;1.60;;;;;;;17.27;53.74;99831.72;1087340;46;20077;-78
2022/12/31 16:21:40;;;;;;;4.45;1.80;;;;;;;17.31;54.03;99830.28;1086856;54;20031;-78
2022/12/31 16:22:42;;;;;;;4.10;1.80;;;;;;;17.39;53.84;99831.16;1087131;54;20046;-77
2022/12/31 16:23:51;;;;;;;4.38;1.98;;;;;;;17.40;53.82;99824.75;1087109;54;20030;-77
2022/12/31 16:24:57;;;;;;;4.68;2.10;;;;;;;17.39;53.68;99823.91;1087285;54;20038;-77
2022/12/31 16:26:01;;;;;;;4.03;2.03;;;;;;;17.41;53.64;99837.22;1087203;54;20039;-76
2022/12/31 16:27:08;;;;;;;4.63;2.20;;;;;;;17.39;53.77;99831.16;1087139;54;20039;-77
2022/12/31 16:28:20;;;;;;;4.68;1.90;;;;;;;17.39;53.52;99836.56;1087183;54;20069;-76
2022/12/31 16:29:25;;;;;;;5.00;2.17;;;;;;;17.37;53.77;99835.97;1087151;54;20034;-77
2022/12/31 16:30:32;;;;;;;4.68;2.30;;;;;;;17.27;53.97;99839.81;1087485;54;20034;-77
2022/12/31 16:31:36;;;;;;;5.00;2.40;;;;;;;17.22;54.28;99836.03;1087546;54;20421;-77
2022/12/31 16:32:43;;;;;;;4.60;2.50;;;;;;;17.25;54.22;99838.31;1090235;39;20240;-78
2022/12/31 16:33:47;;;;;;;4.55;2.35;;;;;;;17.19;54.25;99837.25;1087302;54;20038;-78
2022/12/31 16:34:53;;;;;;;5.57;2.90;;;;;;;17.36;53.67;99834.28;1087231;54;20038;-78
2022/12/31 16:35:58;;;;;;;5.55;2.92;;;;;;;17.40;53.77;99839.09;1087252;54;20038;-78
2022/12/31 16:37:03;;;;;;;5.72;3.10;;;;;;;17.35;53.90;99838.00;1086981;54;20030;-78
2022/12/31 16:38:16;;;;;;;6.35;3.03;;;;;;;17.14;54.17;99842.38;1087177;54;20031;-78
2022/12/31 16:39:28;;;;;;;4.90;2.97;;;;;;;17.20;54.46;99833.50;1087117;54;20035;-77
2022/12/31 16:40:30;;;;;;;5.60;3.13;;;;;;;17.24;54.18;99839.38;1087188;54;20042;-78
2022/12/31 16:41:44;;;;;;;6.53;3.80;;;;;;;17.16;54.54;99843.03;1087192;54;20034;-77
2022/12/31 16:42:50;;;;;;;6.55;3.63;;;;;;;17.02;54.67;99842.06;1087723;46;20030;-78
2022/12/31 16:43:54;;;;;;;5.82;3.25;;;;;;;17.11;54.74;99840.06;1088227;46;20110;-77
2022/12/31 16:44:59;;;;;;;7.75;3.50;;;;;;;17.13;54.70;99838.00;1087099;54;20034;-77
2022/12/31 16:46:08;;;;;;;6.93;3.83;;;;;;;17.15;54.30;99839.47;1087562;46;20053;-77
2022/12/31 16:47:19;;;;;;;6.63;3.65;;;;;;;17.08;54.87;99845.88;1087088;54;20030;-77
2022/12/31 16:48:26;;;;;;;7.22;3.85;;;;;;;17.00;54.95;99850.34;1087217;54;20034;-77
2022/12/31 16:49:30;;;;;;;6.05;3.35;;;;;;;17.02;55.05;99847.47;1087177;54;20034;-77
2022/12/31 16:50:34;;;;;;;5.63;3.33;;;;;;;16.89;55.38;99848.13;1087161;54;20022;-77
2022/12/31 16:51:37;;;;;;;6.18;3.38;;;;;;;16.96;55.22;99846.38;1087024;54;20031;-76
2022/12/31 16:52:43;;;;;;;6.20;3.72;;;;;;;16.89;55.35;99847.28;1087086;54;20087;-76
2022/12/31 16:53:48;;;;;;;6.75;3.38;;;;;;;16.87;55.61;99843.94;1087210;54;20165;-79
2022/12/31 16:54:50;;;;;;;6.32;2.88;;;;;;;16.91;55.36;99840.66;1087112;54;20054;-78
2022/12/31 16:55:57;;;;;;;4.97;2.92;;;;;;;16.92;55.15;99841.50;1087678;39;20654;-78
2022/12/31 16:57:00;;;;;;;5.75;2.60;;;;;;;16.84;55.36;99835.22;1087143;47;20050;-77
2022/12/31 16:58:14;;;;;;;4.80;2.42;;;;;;;16.78;55.50;99844.06;1088068;39;20710;-79
2022/12/31 16:59:25;;;;;;;5.00;2.30;;;;;;;16.84;55.62;99848.72;1087206;54;20758;-79
2022/12/31 17:00:27;;;;;;;5.43;2.50;;;;;;;16.83;55.52;99840.78;1087175;54;20050;-78
2022/12/31 17:01:35;;;;;;;4.80;2.15;;;;;;;16.74;55.77;99840.06;1088154;39;20546;-78
2022/12/31 17:02:39;;;;;;;4.85;2.28;;;;;;;16.77;55.74;99836.16;1087155;54;20038;-77
2022/12/31 17:03:51;;;;;;;5.57;2.72;;;;;;;16.66;56.10;99841.03;1087829;46;20042;-78
2022/12/31 17:04:56;;;;;;;5.32;2.45;;;;;;;16.74;55.98;99842.78;1085171;54;20054;-78
2022/12/31 17:06:13;;;;;;;4.85;2.55;;;;;;;16.74;55.92;99847.31;1085364;54;20049;-79
2022/12/31 17:07:29;;;;;;;7.50;2.63;;;;;;;16.52;56.60;99844.59;1085231;54;20045;-78
2022/12/31 17:08:42;;;;;;;5.18;2.83;;;;;;;16.63;56.40;99844.09;1085272;54;20050;-80
2022/12/31 17:09:46;;;;;;;4.90;2.80;;;;;;;16.53;56.42;99848.97;1085523;54;20059;-78
2022/12/31 17:10:48;;;;;;;6.43;3.50;;;;;;;16.43;56.79;99851.94;1085261;54;20038;-78
2022/12/31 17:11:55;;;;;;;6.30;3.97;;;;;;;16.36;57.22;99849.16;1085433;54;20050;-78
2022/12/31 17:13:02;;;;;;;6.22;3.90;;;;;;;16.29;57.43;99855.50;1086950;39;20450;-78
2022/12/31 17:14:11;;;;;;;7.22;4.53;;;;;;;16.36;57.05;99854.56;1086609;39;20430;-78
2022/12/31 17:15:21;;;;;;;7.70;3.50;;;;;;;16.33;57.06;99854.94;1085867;54;20131;-79
2022/12/31 17:16:26;;;;;;;6.80;3.45;;;;;;;16.38;56.84;99852.50;1085976;47;20045;-79
2022/12/31 17:17:31;;;;;;;5.40;3.63;;;;;;;16.43;56.92;99851.94;1085835;47;20615;-78
2022/12/31 17:18:39;;;;;;;5.40;3.05;;;;;;;16.44;56.90;99850.94;1085058;54;20049;-78
2022/12/31 17:19:47;;;;;;;5.60;3.25;;;;;;;16.37;57.02;99848.13;1085303;54;20066;-78
2022/12/31 17:20:51;;;;;;;5.75;2.80;;;;;;;16.44;56.69;99850.94;1085164;54;20036;-80
2022/12/31 17:21:55;;;;;;;7.60;4.10;;;;;;;16.36;57.13;99857.25;1084974;54;20067;-78
2022/12/31 17:23:01;;;;;;;10.68;5.10;;;;;;;16.34;57.13;99845.81;1085542;39;20524;-78
2022/12/31 17:24:05;;;;;;;7.35;4.20;;;;;;;16.44;56.78;99859.03;1085108;54;20046;-77
2022/12/31 17:25:22;;;;;;;7.30;4.93;;;;;;;16.34;57.07;99847.69;1085824;54;20038;-78
2022/12/31 17:26:29;;;;;;;8.88;4.22;;;;;;;16.27;57.48;99850.28;1086313;39;20592;-78
2022/12/31 17:27:31;;;;;;;6.07;3.70;;;;;;;16.31;57.33;99850.75;1085538;54;20042;-78
2022/12/31 17:28:43;;;;;;;6.22;3.75;;;;;;;16.33;57.25;99851.41;1085776;54;20065;-78
2022/12/31 17:29:47;;;;;;;7.63;4.32;;;;;;;16.19;57.51;99850.38;1086212;39;20445;-78